createdAt,value
2019-03-23T00:00:34.268Z,3.80
2019-03-23T00:03:03.573Z,3.47
2019-03-23T00:05:32.785Z,3.47
2019-03-23T00:08:02.024Z,3.97
2019-03-23T00:10:31.280Z,3.87
2019-03-23T00:13:00.528Z,3.60
2019-03-23T00:15:29.801Z,3.57
2019-03-23T00:17:59.484Z,3.40
2019-03-23T00:20:28.706Z,3.53
2019-03-23T00:22:57.961Z,3.40
2019-03-23T00:25:27.258Z,4.00
2019-03-23T00:27:57.175Z,3.43
2019-03-23T00:30:26.444Z,3.57
2019-03-23T00:32:55.665Z,3.33
2019-03-23T00:35:24.916Z,4.17
2019-03-23T00:37:54.245Z,4.33
2019-03-23T00:40:23.484Z,3.63
2019-03-23T00:42:52.781Z,3.77
2019-03-23T00:45:23.466Z,3.73
2019-03-23T00:47:52.715Z,3.70
2019-03-23T00:50:21.998Z,3.70
2019-03-23T00:52:51.293Z,3.40
2019-03-23T00:55:20.598Z,3.53
2019-03-23T00:57:49.820Z,4.03
2019-03-23T01:00:19.217Z,4.30
2019-03-23T01:02:48.461Z,4.40
2019-03-23T01:05:17.924Z,3.50
2019-03-23T01:07:47.165Z,3.80
2019-03-23T01:10:16.670Z,3.97
2019-03-23T01:12:45.907Z,4.17
2019-03-23T01:15:15.702Z,3.70
2019-03-23T01:17:44.928Z,3.73
2019-03-23T01:20:14.407Z,4.50
2019-03-23T01:22:43.638Z,4.00
2019-03-23T01:25:13.003Z,4.17
2019-03-23T01:27:42.304Z,3.43
2019-03-23T01:30:15.296Z,3.77
2019-03-23T01:32:44.530Z,3.73
2019-03-23T01:35:13.744Z,4.13
2019-03-23T01:37:43.012Z,4.40
2019-03-23T01:40:12.416Z,3.80
2019-03-23T01:42:41.663Z,3.63
2019-03-23T01:45:12.631Z,3.87
2019-03-23T01:47:41.874Z,3.90
2019-03-23T01:50:12.035Z,4.73
2019-03-23T01:52:41.638Z,4.13
2019-03-23T01:55:11.294Z,3.93
2019-03-23T01:57:40.522Z,3.90
2019-03-23T02:00:11.797Z,3.17
2019-03-23T02:02:41.091Z,3.30
2019-03-23T02:05:10.463Z,4.43
2019-03-23T02:07:39.692Z,3.87
2019-03-23T02:10:11.547Z,3.93
2019-03-23T02:12:40.858Z,4.03
2019-03-23T02:15:12.351Z,4.00
2019-03-23T02:17:41.642Z,4.23
2019-03-23T02:20:14.684Z,4.07
2019-03-23T02:22:43.894Z,3.63
2019-03-23T02:25:13.250Z,3.73
2019-03-23T02:27:42.525Z,4.17
2019-03-23T02:30:12.798Z,3.97
2019-03-23T02:32:42.090Z,3.63
2019-03-23T02:35:11.377Z,4.07
2019-03-23T02:37:40.640Z,4.30
2019-03-23T02:40:10.866Z,4.97
2019-03-23T02:42:40.375Z,4.23
2019-03-23T02:45:11.516Z,4.07
2019-03-23T02:47:40.797Z,4.23
2019-03-23T02:50:10.953Z,4.33
2019-03-23T02:52:40.195Z,4.27
2019-03-23T02:55:10.169Z,4.10
2019-03-23T02:57:39.520Z,4.00
2019-03-23T03:00:11.304Z,3.83
2019-03-23T03:02:40.566Z,4.20
2019-03-23T03:05:10.370Z,4.10
2019-03-23T03:07:42.536Z,4.33
2019-03-23T03:10:12.500Z,3.70
2019-03-23T03:12:41.737Z,3.27
2019-03-23T03:15:10.944Z,3.90
2019-03-23T03:17:40.179Z,4.07
2019-03-23T03:20:10.614Z,4.67
2019-03-23T03:22:39.855Z,4.00
2019-03-23T03:25:09.153Z,3.77
2019-03-23T03:27:38.457Z,4.00
2019-03-23T03:30:10.573Z,4.43
2019-03-23T03:32:39.869Z,3.87
2019-03-23T03:35:09.394Z,3.47
2019-03-23T03:37:38.652Z,4.33
2019-03-23T03:40:08.602Z,3.87
2019-03-23T03:42:37.918Z,4.93
2019-03-23T03:45:08.419Z,4.20
2019-03-23T03:47:41.000Z,3.90
2019-03-23T03:50:10.103Z,4.30
2019-03-23T03:52:39.404Z,3.90
2019-03-23T03:55:08.900Z,4.13
2019-03-23T03:57:38.192Z,3.83
2019-03-23T04:00:08.644Z,4.53
2019-03-23T04:02:38.499Z,3.87
2019-03-23T04:05:09.354Z,3.97
2019-03-23T04:07:38.580Z,3.80
2019-03-23T04:10:09.026Z,4.03
2019-03-23T04:12:38.268Z,3.93
2019-03-23T04:15:09.493Z,4.33
2019-03-23T04:17:38.857Z,3.90
2019-03-23T04:20:09.226Z,4.67
2019-03-23T04:22:38.452Z,4.60
2019-03-23T04:25:10.135Z,4.30
2019-03-23T04:27:42.587Z,4.70
2019-03-23T04:30:12.592Z,4.43
2019-03-23T04:32:41.862Z,4.53
2019-03-23T04:35:11.506Z,4.20
2019-03-23T04:37:40.729Z,4.57
2019-03-23T04:40:13.405Z,4.00
2019-03-23T04:42:42.624Z,4.07
2019-03-23T04:45:12.207Z,4.23
2019-03-23T04:47:41.440Z,4.23
2019-03-23T04:50:12.040Z,4.57
2019-03-23T04:52:41.281Z,5.17
2019-03-23T04:55:12.331Z,4.60
2019-03-23T04:57:41.824Z,4.53
2019-03-23T05:00:16.299Z,4.70
2019-03-23T05:02:45.516Z,3.90
2019-03-23T05:05:14.911Z,4.73
2019-03-23T05:07:44.178Z,4.30
2019-03-23T05:10:13.869Z,4.13
2019-03-23T05:12:43.182Z,4.50
2019-03-23T05:15:12.860Z,4.80
2019-03-23T05:17:42.097Z,4.50
2019-03-23T05:20:13.440Z,4.63
2019-03-23T05:22:43.039Z,5.50
2019-03-23T05:25:21.192Z,5.50
2019-03-23T05:27:51.996Z,6.07
2019-03-23T05:30:21.233Z,5.63
2019-03-23T05:32:50.656Z,5.77
2019-03-23T05:35:19.883Z,5.93
2019-03-23T05:37:49.132Z,6.03
2019-03-23T05:40:18.428Z,6.03
2019-03-23T05:42:47.660Z,6.27
2019-03-23T05:45:16.964Z,7.43
2019-03-23T05:47:46.177Z,7.57
2019-03-23T05:50:15.460Z,7.07
2019-03-23T05:52:44.760Z,6.73
2019-03-23T05:55:14.000Z,7.27
2019-03-23T05:57:43.899Z,6.80
2019-03-23T06:00:15.111Z,7.10
2019-03-23T06:02:44.316Z,6.50
2019-03-23T06:05:13.572Z,7.50
2019-03-23T06:07:42.850Z,6.93
2019-03-23T06:10:12.172Z,7.87
2019-03-23T06:12:41.503Z,8.20
2019-03-23T06:15:11.066Z,8.00
2019-03-23T06:17:40.312Z,8.00
2019-03-23T06:20:10.388Z,7.83
2019-03-23T06:22:39.676Z,7.67
2019-03-23T06:25:09.211Z,7.00
2019-03-23T06:27:38.446Z,8.00
2019-03-23T06:30:10.422Z,7.37
2019-03-23T06:32:39.669Z,8.27
2019-03-23T06:35:09.069Z,7.73
2019-03-23T06:37:38.875Z,7.37
2019-03-23T06:40:10.057Z,7.90
2019-03-23T06:42:39.296Z,7.80
2019-03-23T06:45:10.165Z,8.13
2019-03-23T06:47:39.467Z,7.17
2019-03-23T06:50:10.757Z,7.57
2019-03-23T06:52:39.976Z,7.00
2019-03-23T06:55:09.747Z,7.40
2019-03-23T06:57:39.012Z,6.97
2019-03-23T07:00:13.966Z,7.00
2019-03-23T07:02:43.213Z,6.43
2019-03-23T07:05:12.988Z,5.90
2019-03-23T07:07:42.266Z,7.30
2019-03-23T07:10:13.027Z,6.10
2019-03-23T07:12:42.329Z,6.40
2019-03-23T07:15:19.804Z,6.00
2019-03-23T07:17:42.923Z,6.40
2019-03-23T07:20:13.790Z,6.20
2019-03-23T07:22:43.035Z,6.50
2019-03-23T07:25:12.582Z,6.43
2019-03-23T07:27:41.947Z,5.93
2019-03-23T07:30:16.812Z,6.13
2019-03-23T07:32:46.419Z,5.03
2019-03-23T07:35:16.083Z,5.23
2019-03-23T07:37:45.311Z,4.90
2019-03-23T07:40:14.673Z,4.90
2019-03-23T07:42:43.903Z,3.73
2019-03-23T07:45:15.337Z,3.90
2019-03-23T07:47:44.561Z,4.40
2019-03-23T07:50:15.124Z,3.37
2019-03-23T07:52:44.709Z,3.20
2019-03-23T07:55:15.929Z,3.47
2019-03-23T07:57:45.428Z,3.27
2019-03-23T08:00:21.523Z,3.03
2019-03-23T08:02:50.905Z,2.97
2019-03-23T08:05:20.140Z,3.30
2019-03-23T08:07:49.373Z,5.23
2019-03-23T08:10:26.971Z,4.03
2019-03-23T08:12:56.208Z,3.47
2019-03-23T08:15:25.493Z,4.13
2019-03-23T08:20:54.923Z,3.30
2019-03-23T08:23:24.152Z,3.33
2019-03-23T08:25:55.141Z,3.40
2019-03-23T08:28:29.455Z,4.07
2019-03-23T08:30:58.705Z,3.03
2019-03-23T08:33:28.035Z,3.60
2019-03-23T08:35:57.345Z,3.60
2019-03-23T08:38:29.865Z,3.37
2019-03-23T08:40:59.115Z,3.17
2019-03-23T08:43:28.343Z,3.20
2019-03-23T08:45:57.565Z,3.20
2019-03-23T08:48:26.835Z,2.83
2019-03-23T08:50:57.780Z,3.67
2019-03-23T08:53:27.010Z,3.10
2019-03-23T08:55:56.216Z,4.90
2019-03-23T08:58:30.992Z,3.87
2019-03-23T09:01:00.281Z,4.00
2019-03-23T09:03:29.520Z,3.90
2019-03-23T09:05:58.736Z,3.33
2019-03-23T09:08:27.979Z,3.43
2019-03-23T09:10:57.207Z,3.53
2019-03-23T09:13:26.430Z,3.80
2019-03-23T09:15:55.686Z,3.20
2019-03-23T09:18:26.343Z,4.83
2019-03-23T09:20:55.597Z,3.70
2019-03-23T09:23:24.855Z,11.40
2019-03-23T09:25:54.083Z,5.90
2019-03-23T09:28:23.389Z,5.53
2019-03-23T09:30:52.661Z,5.63
2019-03-23T09:33:21.947Z,7.43
2019-03-23T09:35:51.256Z,5.53
2019-03-23T09:38:21.007Z,5.63
2019-03-23T09:40:50.233Z,6.13
2019-03-23T09:43:19.456Z,5.10
2019-03-23T09:45:48.793Z,4.60
2019-03-23T09:48:29.830Z,5.23
2019-03-23T09:50:59.083Z,7.80
2019-03-23T09:53:28.329Z,14.10
2019-03-23T09:55:57.573Z,9.73
2019-03-23T09:58:27.064Z,10.40
2019-03-23T10:00:56.333Z,10.03
2019-03-23T10:03:25.548Z,12.43
2019-03-23T10:05:54.774Z,10.43
2019-03-23T10:08:24.033Z,8.87
2019-03-23T10:10:53.280Z,10.00
2019-03-23T10:13:22.540Z,11.20
2019-03-23T10:15:51.771Z,10.20
2019-03-23T10:18:27.423Z,9.40
2019-03-23T10:20:56.656Z,8.83
2019-03-23T10:23:25.933Z,10.43
2019-03-23T10:25:55.248Z,9.17
2019-03-23T10:28:24.497Z,7.80
2019-03-23T10:30:53.747Z,12.07
2019-03-23T10:33:23.005Z,9.63
2019-03-23T10:35:52.352Z,11.37
2019-03-23T10:38:22.562Z,11.70
2019-03-23T10:40:51.871Z,11.37
2019-03-23T10:43:21.158Z,14.70
2019-03-23T10:45:50.418Z,8.90
2019-03-23T10:48:19.640Z,9.10
2019-03-23T10:50:48.875Z,8.70
2019-03-23T10:53:23.057Z,9.53
2019-03-23T10:55:51.752Z,11.17
2019-03-23T10:58:20.985Z,9.43
2019-03-23T11:00:50.246Z,7.83
2019-03-23T11:03:19.484Z,17.27
2019-03-23T11:05:48.760Z,12.77
2019-03-23T11:08:18.575Z,14.90
2019-03-23T11:10:47.822Z,13.27
2019-03-23T11:13:17.088Z,11.30
2019-03-23T11:15:46.381Z,13.77
2019-03-23T11:18:16.342Z,12.70
2019-03-23T11:20:45.727Z,11.60
2019-03-23T11:23:15.099Z,14.27
2019-03-23T11:25:44.414Z,14.33
2019-03-23T11:28:16.332Z,12.37
2019-03-23T11:30:45.580Z,13.87
2019-03-23T11:33:14.842Z,12.70
2019-03-23T11:35:44.081Z,11.07
2019-03-23T11:38:13.958Z,11.93
2019-03-23T11:40:52.751Z,11.63
2019-03-23T11:43:14.357Z,11.27
2019-03-23T11:45:43.657Z,13.27
2019-03-23T11:48:12.949Z,13.20
2019-03-23T11:50:42.244Z,11.23
2019-03-23T11:53:11.477Z,12.07
2019-03-23T11:55:40.739Z,11.07
2019-03-23T11:58:10.013Z,16.80
2019-03-23T12:00:39.273Z,13.70
2019-03-23T12:03:08.506Z,13.03
2019-03-23T12:05:37.760Z,14.17
2019-03-23T12:08:07.112Z,13.40
2019-03-23T12:10:36.421Z,12.13
2019-03-23T12:13:05.657Z,19.17
2019-03-23T12:15:35.007Z,14.67
2019-03-23T12:18:04.877Z,15.33
2019-03-23T12:20:34.135Z,13.10
2019-03-23T12:23:03.394Z,13.43
2019-03-23T12:25:32.663Z,12.67
2019-03-23T12:28:01.911Z,17.53
2019-03-23T12:30:31.189Z,14.17
2019-03-23T12:33:00.499Z,15.57
2019-03-23T12:35:29.760Z,13.43
2019-03-23T12:37:59.039Z,14.63
2019-03-23T12:40:28.279Z,13.37
2019-03-23T12:42:57.509Z,11.20
2019-03-23T12:45:26.808Z,10.73
2019-03-23T12:47:56.035Z,11.27
2019-03-23T12:50:25.724Z,9.70
2019-03-23T12:52:55.181Z,9.70
2019-03-23T12:55:25.886Z,9.07
2019-03-23T12:57:55.213Z,8.13
2019-03-23T13:00:24.451Z,8.67
2019-03-23T13:02:53.717Z,8.73
2019-03-23T13:05:22.943Z,7.93
2019-03-23T13:07:52.188Z,10.97
2019-03-23T13:10:21.429Z,14.23
2019-03-23T13:12:50.722Z,17.43
2019-03-23T13:15:20.011Z,16.63
2019-03-23T13:17:49.273Z,12.53
2019-03-23T13:20:18.547Z,12.20
2019-03-23T13:22:47.863Z,11.43
2019-03-23T13:25:17.165Z,10.73
2019-03-23T13:27:46.410Z,10.33
2019-03-23T13:30:16.988Z,17.97
2019-03-23T13:32:46.228Z,16.27
2019-03-23T13:35:15.484Z,18.50
2019-03-23T13:37:44.769Z,21.40
2019-03-23T13:40:14.321Z,18.53
2019-03-23T13:42:43.646Z,16.00
2019-03-23T13:45:13.366Z,13.60
2019-03-23T13:47:42.710Z,13.43
2019-03-23T13:50:12.866Z,12.53
2019-03-23T13:52:42.194Z,11.00
2019-03-23T13:55:14.586Z,10.13
2019-03-23T13:57:43.824Z,9.53
2019-03-23T14:00:13.426Z,10.23
2019-03-23T14:02:42.682Z,13.17
2019-03-23T14:05:16.062Z,21.30
2019-03-23T14:07:42.859Z,19.37
2019-03-23T14:10:12.339Z,16.47
2019-03-23T14:12:41.614Z,17.90
2019-03-23T14:15:10.944Z,19.03
2019-03-23T14:17:40.194Z,16.80
2019-03-23T14:20:09.916Z,15.30
2019-03-23T14:22:39.207Z,19.53
2019-03-23T14:25:08.630Z,21.13
2019-03-23T14:27:37.887Z,21.57
2019-03-23T14:30:08.480Z,20.83
2019-03-23T14:32:37.802Z,17.27
2019-03-23T14:35:07.986Z,23.10
2019-03-23T14:37:37.231Z,20.47
2019-03-23T14:40:07.022Z,17.90
2019-03-23T14:42:36.664Z,15.90
2019-03-23T14:45:07.732Z,13.83
2019-03-23T14:47:36.991Z,16.63
2019-03-23T14:50:07.271Z,13.07
2019-03-23T14:52:36.551Z,11.87
2019-03-23T14:55:06.580Z,12.23
2019-03-23T14:57:35.858Z,12.33
2019-03-23T15:00:08.103Z,10.33
2019-03-23T15:02:37.383Z,11.00
2019-03-23T15:05:07.674Z,12.17
2019-03-23T15:07:36.983Z,13.33
2019-03-23T15:10:09.931Z,12.10
2019-03-23T15:12:39.185Z,10.43
2019-03-23T15:15:08.767Z,14.70
2019-03-23T15:17:44.863Z,16.63
2019-03-23T15:20:09.175Z,16.93
2019-03-23T15:22:38.471Z,16.20
2019-03-23T15:25:08.036Z,13.40
2019-03-23T15:27:37.285Z,13.50
2019-03-23T15:30:08.351Z,14.13
2019-03-23T15:32:37.580Z,11.63
2019-03-23T15:35:08.567Z,14.37
2019-03-23T15:37:37.821Z,13.57
2019-03-23T15:40:08.249Z,13.20
2019-03-23T15:42:37.589Z,11.30
2019-03-23T15:45:09.304Z,12.40
2019-03-23T15:47:38.702Z,10.33
2019-03-23T15:50:11.169Z,11.13
2019-03-23T15:52:40.397Z,10.60
2019-03-23T15:55:10.817Z,12.27
2019-03-23T15:57:40.056Z,10.23
2019-03-23T16:00:11.265Z,9.67
2019-03-23T16:02:40.505Z,9.60
2019-03-23T16:05:10.176Z,11.73
2019-03-23T16:07:39.511Z,10.73
2019-03-23T16:10:09.190Z,11.90
2019-03-23T16:12:38.505Z,10.70
2019-03-23T16:15:10.871Z,11.27
2019-03-23T16:17:40.178Z,12.63
2019-03-23T16:20:11.069Z,10.63
2019-03-23T16:22:40.425Z,11.27
2019-03-23T16:25:11.338Z,12.73
2019-03-23T16:27:40.579Z,15.63
2019-03-23T16:30:13.447Z,12.07
2019-03-23T16:32:42.739Z,11.67
2019-03-23T16:35:12.537Z,12.83
2019-03-23T16:37:41.877Z,11.83
2019-03-23T16:40:11.487Z,11.60
2019-03-23T16:42:45.324Z,13.57
2019-03-23T16:45:11.903Z,11.67
2019-03-23T16:47:41.137Z,11.50
2019-03-23T16:50:10.745Z,10.13
2019-03-23T16:52:40.123Z,9.23
2019-03-23T16:55:09.998Z,9.20
2019-03-23T16:57:39.254Z,9.00
2019-03-23T17:00:13.875Z,13.70
2019-03-23T17:02:43.117Z,9.80
2019-03-23T17:05:12.573Z,9.97
2019-03-23T17:07:41.885Z,11.77
2019-03-23T17:10:11.481Z,10.03
2019-03-23T17:12:40.742Z,9.33
2019-03-23T17:15:10.143Z,8.17
2019-03-23T17:17:39.431Z,7.97
2019-03-23T17:20:09.213Z,6.40
2019-03-23T17:22:38.469Z,9.63
2019-03-23T17:25:08.244Z,11.43
2019-03-23T17:27:37.580Z,9.97
2019-03-23T17:30:07.673Z,8.60
2019-03-23T17:32:38.611Z,8.13
2019-03-23T17:35:08.566Z,7.43
2019-03-23T17:37:37.847Z,5.57
2019-03-23T17:40:08.151Z,5.97
2019-03-23T17:42:37.425Z,6.03
2019-03-23T17:45:07.646Z,5.30
2019-03-23T17:47:36.988Z,4.93
2019-03-23T17:50:06.826Z,5.53
2019-03-23T17:52:36.143Z,4.80
2019-03-23T17:55:08.495Z,4.07
2019-03-23T17:57:37.752Z,5.03
2019-03-23T18:00:08.571Z,5.13
2019-03-23T18:02:38.138Z,5.57
2019-03-23T18:05:07.959Z,4.93
2019-03-23T18:07:37.283Z,4.90
2019-03-23T18:10:10.326Z,5.47
2019-03-23T18:12:39.808Z,5.50
2019-03-23T18:15:11.139Z,5.07
2019-03-23T18:17:40.448Z,6.10
2019-03-23T18:20:10.032Z,5.70
2019-03-23T18:22:39.502Z,5.17
2019-03-23T18:25:09.289Z,5.53
2019-03-23T18:27:38.716Z,5.13
2019-03-23T18:30:23.337Z,4.60
2019-03-23T18:32:52.608Z,4.17
2019-03-23T18:35:21.878Z,4.33
2019-03-23T18:37:51.192Z,3.67
2019-03-23T18:40:20.547Z,3.80
2019-03-23T18:43:02.462Z,3.97
2019-03-23T18:45:31.779Z,4.93
2019-03-23T18:48:01.097Z,4.07
2019-03-23T18:50:30.436Z,4.37
2019-03-23T18:52:59.748Z,6.07
2019-03-23T18:55:29.172Z,4.20
2019-03-23T18:58:01.101Z,4.47
2019-03-23T19:00:37.713Z,4.17
2019-03-23T19:03:07.210Z,4.33
2019-03-23T19:05:36.744Z,4.20
2019-03-23T19:08:06.237Z,4.03
2019-03-23T19:10:35.726Z,4.13
2019-03-23T19:13:05.552Z,4.30
2019-03-23T19:15:34.878Z,4.03
2019-03-23T19:18:05.858Z,3.73
2019-03-23T19:20:35.945Z,4.43
2019-03-23T19:23:05.275Z,5.83
2019-03-23T19:25:34.588Z,5.07
2019-03-23T19:28:04.038Z,5.67
2019-03-23T19:30:33.414Z,5.27
2019-03-23T19:33:02.675Z,4.57
2019-03-23T19:35:31.982Z,5.67
2019-03-23T19:38:01.263Z,5.40
2019-03-23T19:40:30.648Z,5.23
2019-03-23T19:42:59.894Z,6.10
2019-03-23T19:45:29.159Z,5.93
2019-03-23T19:47:59.232Z,8.40
2019-03-23T19:50:28.492Z,9.20
2019-03-23T19:52:57.712Z,7.90
2019-03-23T19:55:26.956Z,7.37
2019-03-23T19:57:56.256Z,7.03
2019-03-23T20:00:25.584Z,6.70
2019-03-23T20:02:54.909Z,7.30
2019-03-23T20:05:24.236Z,6.87
2019-03-23T20:07:53.480Z,6.50
2019-03-23T20:10:22.744Z,6.97
2019-03-23T20:12:51.982Z,7.23
2019-03-23T20:15:21.289Z,7.07
2019-03-23T20:17:50.642Z,7.87
2019-03-23T20:20:20.127Z,8.60
2019-03-23T20:22:49.492Z,8.17
2019-03-23T20:25:18.747Z,8.47
2019-03-23T20:27:48.006Z,8.80
2019-03-23T20:30:17.697Z,8.73
2019-03-23T20:32:46.979Z,9.10
2019-03-23T20:35:16.285Z,9.23
2019-03-23T20:37:45.542Z,9.40
2019-03-23T20:40:15.410Z,9.70
2019-03-23T20:42:44.717Z,9.27
2019-03-23T20:45:17.039Z,8.43
2019-03-23T20:47:46.338Z,8.53
2019-03-23T20:50:15.672Z,12.23
2019-03-23T20:52:45.213Z,16.00
2019-03-23T20:55:23.179Z,14.70
2019-03-23T20:57:53.085Z,13.40
2019-03-23T21:00:22.472Z,12.63
2019-03-23T21:02:51.720Z,10.43
2019-03-23T21:05:20.978Z,11.53
2019-03-23T21:07:50.277Z,14.80
2019-03-23T21:10:19.596Z,14.47
2019-03-23T21:12:48.870Z,12.23
2019-03-23T21:15:18.219Z,10.87
2019-03-23T21:17:51.401Z,9.70
2019-03-23T21:20:18.384Z,10.50
2019-03-23T21:22:47.614Z,10.87
2019-03-23T21:25:29.361Z,11.63
2019-03-23T21:27:58.608Z,11.43
2019-03-23T21:30:28.050Z,9.67
2019-03-23T21:32:57.281Z,8.67
2019-03-23T21:35:26.554Z,8.97
2019-03-23T21:37:55.804Z,8.67
2019-03-23T21:40:25.069Z,8.83
2019-03-23T21:42:54.288Z,8.03
2019-03-23T21:45:23.585Z,8.37
2019-03-23T21:47:52.838Z,8.00
2019-03-23T21:50:22.062Z,7.20
2019-03-23T21:52:51.313Z,7.53
2019-03-23T21:55:39.978Z,7.27
2019-03-23T21:58:09.434Z,8.00
2019-03-23T22:00:38.818Z,7.77
2019-03-23T22:03:08.089Z,13.87
2019-03-23T22:05:37.408Z,11.30
2019-03-23T22:08:06.821Z,13.40
2019-03-23T22:10:36.965Z,13.83
2019-03-23T22:13:06.331Z,14.73
2019-03-23T22:15:35.660Z,16.63
2019-03-23T22:18:06.554Z,17.37
2019-03-23T22:20:35.807Z,16.60
2019-03-23T22:23:05.449Z,19.63
2019-03-23T22:25:34.696Z,18.57
2019-03-23T22:28:04.302Z,18.70
2019-03-23T22:30:33.571Z,17.40
2019-03-23T22:33:02.849Z,14.00
2019-03-23T22:35:32.171Z,12.90
2019-03-23T22:38:01.786Z,12.33
2019-03-23T22:40:31.131Z,13.53
2019-03-23T22:43:00.379Z,14.53
2019-03-23T22:45:29.661Z,11.83
2019-03-23T22:47:59.400Z,12.50
2019-03-23T22:50:28.792Z,12.30
2019-03-23T22:52:58.096Z,12.50
2019-03-23T22:55:27.336Z,12.60
2019-03-23T22:57:56.572Z,15.00
2019-03-23T23:00:33.887Z,14.63
2019-03-23T23:03:03.118Z,14.07
2019-03-23T23:05:32.440Z,21.77
2019-03-23T23:08:01.697Z,22.10
2019-03-23T23:10:31.002Z,22.60
2019-03-23T23:13:00.358Z,23.67
2019-03-23T23:15:29.662Z,21.07
2019-03-23T23:17:59.940Z,20.97
2019-03-23T23:20:30.944Z,29.63
2019-03-23T23:23:00.220Z,27.90
2019-03-23T23:25:29.489Z,25.40
2019-03-23T23:27:59.532Z,24.20
2019-03-23T23:30:28.759Z,24.73
2019-03-23T23:32:58.000Z,24.43
2019-03-23T23:35:27.266Z,24.47
2019-03-23T23:37:56.565Z,30.27
2019-03-23T23:40:25.842Z,29.73
2019-03-23T23:42:55.081Z,31.77
2019-03-23T23:45:24.349Z,35.27
2019-03-23T23:47:53.586Z,35.80
2019-03-23T23:50:22.837Z,32.27
2019-03-23T23:52:52.089Z,36.13
2019-03-23T23:55:21.418Z,36.43
2019-03-23T23:57:50.654Z,34.97
